sensor_id;sensor_type;location;lat;lon;timestamp;pressure;altitude;pressure_sealevel;temperature;humidity
70011;BME280;59543;37.950;-122.338;2022-09-09T00:02:05;100231.41;;;27.82;40.04
70011;BME280;59543;37.950;-122.338;2022-09-09T00:04:38;100228.88;;;27.70;40.15
70011;BME280;59543;37.950;-122.338;2022-09-09T00:12:32;100217.22;;;27.17;41.67
70011;BME280;59543;37.950;-122.338;2022-09-09T00:15:02;100228.00;;;27.24;41.86
70011;BME280;59543;37.950;-122.338;2022-09-09T00:17:36;100221.94;;;27.32;41.84
70011;BME280;59543;37.950;-122.338;2022-09-09T00:20:36;100214.09;;;27.13;41.22
70011;BME280;59543;37.950;-122.338;2022-09-09T00:25:59;100207.38;;;26.79;42.25
70011;BME280;59543;37.950;-122.338;2022-09-09T00:28:31;100204.41;;;26.43;42.78
70011;BME280;59543;37.950;-122.338;2022-09-09T00:31:11;100199.25;;;26.14;43.48
70011;BME280;59543;37.950;-122.338;2022-09-09T00:33:38;100194.94;;;26.23;43.74
70011;BME280;59543;37.950;-122.338;2022-09-09T00:36:13;100204.94;;;25.97;43.62
70011;BME280;59543;37.950;-122.338;2022-09-09T00:38:53;100215.31;;;26.17;43.71
70011;BME280;59543;37.950;-122.338;2022-09-09T00:41:34;100210.19;;;25.99;43.82
70011;BME280;59543;37.950;-122.338;2022-09-09T00:46:56;100198.50;;;25.82;44.06
70011;BME280;59543;37.950;-122.338;2022-09-09T00:57:34;100183.66;;;25.88;44.63
70011;BME280;59543;37.950;-122.338;2022-09-09T01:02:58;100182.59;;;25.94;44.43
70011;BME280;59543;37.950;-122.338;2022-09-09T01:08:39;100184.00;;;25.64;44.95
70011;BME280;59543;37.950;-122.338;2022-09-09T01:11:20;100174.78;;;25.53;45.23
70011;BME280;59543;37.950;-122.338;2022-09-09T01:13:47;100177.06;;;25.07;46.47
70011;BME280;59543;37.950;-122.338;2022-09-09T01:16:16;100183.31;;;24.98;47.45
70011;BME280;59543;37.950;-122.338;2022-09-09T01:18:49;100180.63;;;24.59;48.05
70011;BME280;59543;37.950;-122.338;2022-09-09T01:26:43;100183.09;;;24.22;49.25
70011;BME280;59543;37.950;-122.338;2022-09-09T01:29:13;100195.38;;;23.97;49.59
70011;BME280;59543;37.950;-122.338;2022-09-09T01:31:53;100201.28;;;24.23;49.57
70011;BME280;59543;37.950;-122.338;2022-09-09T01:34:21;100192.53;;;24.09;50.08
70011;BME280;59543;37.950;-122.338;2022-09-09T01:37:02;100191.22;;;23.94;50.09
70011;BME280;59543;37.950;-122.338;2022-09-09T01:39:33;100194.53;;;23.80;50.54
70011;BME280;59543;37.950;-122.338;2022-09-09T01:42:01;100191.28;;;24.00;50.26
70011;BME280;59543;37.950;-122.338;2022-09-09T01:44:30;100177.38;;;23.56;50.68
70011;BME280;59543;37.950;-122.338;2022-09-09T01:46:56;100180.25;;;23.32;50.88
70011;BME280;59543;37.950;-122.338;2022-09-09T01:49:23;100191.84;;;23.05;51.81
70011;BME280;59543;37.950;-122.338;2022-09-09T01:51:53;100189.31;;;22.64;52.56
70011;BME280;59543;37.950;-122.338;2022-09-09T01:54:21;100193.31;;;22.85;51.79
70011;BME280;59543;37.950;-122.338;2022-09-09T01:57:23;100192.38;;;22.79;52.04
70011;BME280;59543;37.950;-122.338;2022-09-09T02:02:30;100183.19;;;22.33;53.62
70011;BME280;59543;37.950;-122.338;2022-09-09T02:07:53;100178.63;;;22.15;53.59
70011;BME280;59543;37.950;-122.338;2022-09-09T02:10:43;100178.50;;;21.86;54.37
70011;BME280;59543;37.950;-122.338;2022-09-09T02:13:17;100179.22;;;21.70;55.10
70011;BME280;59543;37.950;-122.338;2022-09-09T02:18:27;100180.78;;;21.36;56.41
70011;BME280;59543;37.950;-122.338;2022-09-09T02:20:56;100171.41;;;21.13;57.73
70011;BME280;59543;37.950;-122.338;2022-09-09T02:23:24;100161.56;;;21.12;57.35
70011;BME280;59543;37.950;-122.338;2022-09-09T02:25:51;100164.75;;;21.09;57.01
70011;BME280;59543;37.950;-122.338;2022-09-09T02:28:21;100158.53;;;21.02;57.03
70011;BME280;59543;37.950;-122.338;2022-09-09T02:30:52;100168.72;;;20.95;57.33
70011;BME280;59543;37.950;-122.338;2022-09-09T02:33:25;100171.03;;;20.80;57.99
70011;BME280;59543;37.950;-122.338;2022-09-09T02:35:54;100166.34;;;20.68;58.15
70011;BME280;59543;37.950;-122.338;2022-09-09T02:38:29;100171.06;;;20.61;58.58
70011;BME280;59543;37.950;-122.338;2022-09-09T02:40:58;100153.31;;;20.52;58.70
70011;BME280;59543;37.950;-122.338;2022-09-09T02:43:25;100153.97;;;20.47;59.38
70011;BME280;59543;37.950;-122.338;2022-09-09T02:54:32;100173.09;;;20.47;59.11
70011;BME280;59543;37.950;-122.338;2022-09-09T02:57:07;100166.59;;;20.05;60.21
70011;BME280;59543;37.950;-122.338;2022-09-09T02:59:35;100174.09;;;20.09;59.95
70011;BME280;59543;37.950;-122.338;2022-09-09T03:02:01;100163.72;;;20.00;60.25
70011;BME280;59543;37.950;-122.338;2022-09-09T03:04:31;100161.50;;;19.90;60.90
70011;BME280;59543;37.950;-122.338;2022-09-09T03:06:58;100165.50;;;19.87;61.07
70011;BME280;59543;37.950;-122.338;2022-09-09T03:09:25;100169.19;;;19.75;61.70
70011;BME280;59543;37.950;-122.338;2022-09-09T03:11:52;100176.72;;;19.48;62.54
70011;BME280;59543;37.950;-122.338;2022-09-09T03:14:22;100174.25;;;19.39;62.46
70011;BME280;59543;37.950;-122.338;2022-09-09T03:16:51;100181.72;;;19.26;63.19
70011;BME280;59543;37.950;-122.338;2022-09-09T03:19:18;100181.88;;;19.31;62.81
70011;BME280;59543;37.950;-122.338;2022-09-09T03:21:45;100187.72;;;19.34;62.85
70011;BME280;59543;37.950;-122.338;2022-09-09T03:24:13;100192.53;;;19.39;62.66
70011;BME280;59543;37.950;-122.338;2022-09-09T03:26:43;100196.75;;;19.35;62.56
70011;BME280;59543;37.950;-122.338;2022-09-09T03:29:12;100200.13;;;19.30;62.56
70011;BME280;59543;37.950;-122.338;2022-09-09T03:31:39;100208.66;;;19.09;63.67
70011;BME280;59543;37.950;-122.338;2022-09-09T03:34:06;100208.06;;;19.00;63.93
70011;BME280;59543;37.950;-122.338;2022-09-09T03:36:32;100225.72;;;18.91;64.55
70011;BME280;59543;37.950;-122.338;2022-09-09T03:38:59;100229.34;;;18.65;65.81
70011;BME280;59543;37.950;-122.338;2022-09-09T03:41:32;100238.38;;;18.65;65.74
70011;BME280;59543;37.950;-122.338;2022-09-09T03:44:00;100219.13;;;18.54;66.04
70011;BME280;59543;37.950;-122.338;2022-09-09T03:46:26;100231.09;;;18.39;66.50
70011;BME280;59543;37.950;-122.338;2022-09-09T03:48:59;100239.28;;;18.33;67.12
70011;BME280;59543;37.950;-122.338;2022-09-09T03:51:27;100240.75;;;18.22;66.91
70011;BME280;59543;37.950;-122.338;2022-09-09T03:53:54;100233.44;;;18.16;67.84
70011;BME280;59543;37.950;-122.338;2022-09-09T03:56:22;100241.81;;;18.14;67.45
70011;BME280;59543;37.950;-122.338;2022-09-09T03:58:49;100248.75;;;17.90;68.28
70011;BME280;59543;37.950;-122.338;2022-09-09T04:01:15;100237.00;;;17.90;67.58
70011;BME280;59543;37.950;-122.338;2022-09-09T04:03:43;100255.44;;;17.94;67.54
70011;BME280;59543;37.950;-122.338;2022-09-09T04:06:13;100245.38;;;17.88;67.49
70011;BME280;59543;37.950;-122.338;2022-09-09T04:08:41;100248.28;;;17.80;67.22
70011;BME280;59543;37.950;-122.338;2022-09-09T04:11:07;100246.84;;;17.84;67.40
70011;BME280;59543;37.950;-122.338;2022-09-09T04:13:36;100245.56;;;17.87;67.12
70011;BME280;59543;37.950;-122.338;2022-09-09T04:16:09;100254.59;;;17.87;66.56
70011;BME280;59543;37.950;-122.338;2022-09-09T04:18:39;100251.00;;;17.87;66.54
70011;BME280;59543;37.950;-122.338;2022-09-09T04:21:06;100254.38;;;17.89;66.66
70011;BME280;59543;37.950;-122.338;2022-09-09T04:23:33;100251.41;;;17.77;66.72
70011;BME280;59543;37.950;-122.338;2022-09-09T04:26:01;100242.22;;;17.78;66.25
70011;BME280;59543;37.950;-122.338;2022-09-09T04:28:30;100246.41;;;17.80;66.46
70011;BME280;59543;37.950;-122.338;2022-09-09T04:31:07;100265.69;;;17.86;66.53
70011;BME280;59543;37.950;-122.338;2022-09-09T04:33:35;100264.44;;;17.88;66.27
70011;BME280;59543;37.950;-122.338;2022-09-09T04:36:01;100262.94;;;17.92;66.01
70011;BME280;59543;37.950;-122.338;2022-09-09T04:38:27;100264.38;;;17.75;66.65
70011;BME280;59543;37.950;-122.338;2022-09-09T04:40:54;100263.53;;;17.74;66.77
70011;BME280;59543;37.950;-122.338;2022-09-09T04:43:22;100259.56;;;17.77;67.24
70011;BME280;59543;37.950;-122.338;2022-09-09T04:45:49;100261.22;;;17.58;68.00
70011;BME280;59543;37.950;-122.338;2022-09-09T04:48:17;100259.97;;;17.60;67.87
70011;BME280;59543;37.950;-122.338;2022-09-09T04:50:43;100262.69;;;17.60;67.80
70011;BME280;59543;37.950;-122.338;2022-09-09T04:53:10;100263.94;;;17.51;67.82
70011;BME280;59543;37.950;-122.338;2022-09-09T04:55:36;100249.69;;;17.36;68.51
70011;BME280;59543;37.950;-122.338;2022-09-09T04:58:07;100257.78;;;17.29;68.72
70011;BME280;59543;37.950;-122.338;2022-09-09T05:00:35;100262.38;;;17.22;68.78
70011;BME280;59543;37.950;-122.338;2022-09-09T05:03:05;100258.19;;;17.13;69.57
70011;BME280;59543;37.950;-122.338;2022-09-09T05:05:33;100258.63;;;17.23;69.47
70011;BME280;59543;37.950;-122.338;2022-09-09T05:08:03;100247.06;;;17.08;69.73
70011;BME280;59543;37.950;-122.338;2022-09-09T05:10:31;100251.00;;;16.99;69.73
70011;BME280;59543;37.950;-122.338;2022-09-09T05:12:58;100248.72;;;17.02;69.46
70011;BME280;59543;37.950;-122.338;2022-09-09T05:15:26;100256.09;;;17.15;68.93
70011;BME280;59543;37.950;-122.338;2022-09-09T05:17:56;100248.53;;;17.10;68.83
70011;BME280;59543;37.950;-122.338;2022-09-09T05:20:22;100255.66;;;17.11;68.58
70011;BME280;59543;37.950;-122.338;2022-09-09T05:22:55;100252.75;;;17.20;68.15
70011;BME280;59543;37.950;-122.338;2022-09-09T05:25:22;100243.66;;;16.92;69.29
70011;BME280;59543;37.950;-122.338;2022-09-09T05:27:51;100248.13;;;17.13;68.62
70011;BME280;59543;37.950;-122.338;2022-09-09T05:30:19;100245.63;;;17.12;68.41
70011;BME280;59543;37.950;-122.338;2022-09-09T05:32:45;100247.72;;;17.17;68.40
70011;BME280;59543;37.950;-122.338;2022-09-09T05:35:13;100244.81;;;17.18;68.01
70011;BME280;59543;37.950;-122.338;2022-09-09T05:37:40;100243.53;;;17.07;68.56
70011;BME280;59543;37.950;-122.338;2022-09-09T05:40:06;100240.94;;;16.92;69.11
70011;BME280;59543;37.950;-122.338;2022-09-09T05:42:33;100240.53;;;16.96;69.04
70011;BME280;59543;37.950;-122.338;2022-09-09T05:44:59;100246.63;;;16.98;69.06
70011;BME280;59543;37.950;-122.338;2022-09-09T05:47:25;100245.50;;;16.79;69.43
70011;BME280;59543;37.950;-122.338;2022-09-09T05:49:54;100248.78;;;16.74;69.85
70011;BME280;59543;37.950;-122.338;2022-09-09T05:52:20;100257.59;;;16.76;69.99
70011;BME280;59543;37.950;-122.338;2022-09-09T05:54:47;100245.97;;;16.89;69.47
70011;BME280;59543;37.950;-122.338;2022-09-09T05:57:13;100252.19;;;16.76;69.97
70011;BME280;59543;37.950;-122.338;2022-09-09T05:59:39;100245.28;;;16.80;69.96
70011;BME280;59543;37.950;-122.338;2022-09-09T06:02:07;100244.59;;;16.72;69.73
70011;BME280;59543;37.950;-122.338;2022-09-09T06:04:33;100248.31;;;16.64;70.16
70011;BME280;59543;37.950;-122.338;2022-09-09T06:07:00;100255.00;;;16.61;70.12
70011;BME280;59543;37.950;-122.338;2022-09-09T06:09:26;100244.94;;;16.55;70.03
70011;BME280;59543;37.950;-122.338;2022-09-09T06:11:53;100258.56;;;16.68;69.38
70011;BME280;59543;37.950;-122.338;2022-09-09T06:14:20;100248.31;;;16.64;69.53
70011;BME280;59543;37.950;-122.338;2022-09-09T06:16:47;100250.41;;;16.68;69.38
70011;BME280;59543;37.950;-122.338;2022-09-09T06:19:13;100252.53;;;16.73;69.29
70011;BME280;59543;37.950;-122.338;2022-09-09T06:21:40;100253.69;;;16.85;68.45
70011;BME280;59543;37.950;-122.338;2022-09-09T06:24:07;100254.22;;;16.74;68.83
70011;BME280;59543;37.950;-122.338;2022-09-09T06:26:35;100251.38;;;16.82;68.58
70011;BME280;59543;37.950;-122.338;2022-09-09T06:29:03;100249.06;;;16.79;68.22
70011;BME280;59543;37.950;-122.338;2022-09-09T06:31:31;100250.72;;;16.80;68.20
70011;BME280;59543;37.950;-122.338;2022-09-09T06:34:00;100238.44;;;16.91;68.01
70011;BME280;59543;37.950;-122.338;2022-09-09T06:36:34;100236.72;;;16.83;67.86
70011;BME280;59543;37.950;-122.338;2022-09-09T06:39:03;100239.47;;;16.90;67.66
70011;BME280;59543;37.950;-122.338;2022-09-09T06:41:31;100235.06;;;16.82;68.19
70011;BME280;59543;37.950;-122.338;2022-09-09T06:43:58;100243.19;;;16.76;68.87
70011;BME280;59543;37.950;-122.338;2022-09-09T06:46:27;100244.47;;;16.80;68.95
70011;BME280;59543;37.950;-122.338;2022-09-09T06:48:55;100245.81;;;16.69;69.49
70011;BME280;59543;37.950;-122.338;2022-09-09T06:51:24;100256.09;;;16.74;69.35
70011;BME280;59543;37.950;-122.338;2022-09-09T06:53:53;100240.25;;;16.77;69.12
70011;BME280;59543;37.950;-122.338;2022-09-09T06:56:24;100242.16;;;16.77;69.27
70011;BME280;59543;37.950;-122.338;2022-09-09T06:58:56;100243.34;;;16.74;68.93
70011;BME280;59543;37.950;-122.338;2022-09-09T07:01:26;100238.50;;;16.69;69.09
70011;BME280;59543;37.950;-122.338;2022-09-09T07:03:56;100241.75;;;16.80;68.63
70011;BME280;59543;37.950;-122.338;2022-09-09T07:06:41;100233.16;;;16.76;68.55
70011;BME280;59543;37.950;-122.338;2022-09-09T07:09:11;100236.25;;;16.73;68.58
70011;BME280;59543;37.950;-122.338;2022-09-09T07:11:40;100233.06;;;16.69;68.40
70011;BME280;59543;37.950;-122.338;2022-09-09T07:14:07;100225.38;;;16.73;68.40
70011;BME280;59543;37.950;-122.338;2022-09-09T07:16:34;100218.06;;;16.74;68.00
70011;BME280;59543;37.950;-122.338;2022-09-09T07:19:04;100215.34;;;16.74;67.87
70011;BME280;59543;37.950;-122.338;2022-09-09T07:21:31;100209.56;;;16.77;67.96
70011;BME280;59543;37.950;-122.338;2022-09-09T07:23:59;100205.78;;;16.78;67.78
70011;BME280;59543;37.950;-122.338;2022-09-09T07:26:27;100199.06;;;16.74;67.87
70011;BME280;59543;37.950;-122.338;2022-09-09T07:28:55;100190.66;;;16.62;68.36
70011;BME280;59543;37.950;-122.338;2022-09-09T07:33:50;100192.28;;;16.50;69.29
70011;BME280;59543;37.950;-122.338;2022-09-09T07:36:25;100189.13;;;16.46;69.68
70011;BME280;59543;37.950;-122.338;2022-09-09T07:38:54;100188.09;;;16.54;69.71
70011;BME280;59543;37.950;-122.338;2022-09-09T07:41:27;100181.38;;;16.43;70.68
70011;BME280;59543;37.950;-122.338;2022-09-09T07:43:54;100184.91;;;16.37;70.97
70011;BME280;59543;37.950;-122.338;2022-09-09T07:46:23;100179.38;;;16.58;70.21
70011;BME280;59543;37.950;-122.338;2022-09-09T07:48:53;100164.72;;;16.53;70.40
70011;BME280;59543;37.950;-122.338;2022-09-09T07:51:29;100172.59;;;16.41;71.01
70011;BME280;59543;37.950;-122.338;2022-09-09T07:54:01;100161.28;;;16.31;71.58
70011;BME280;59543;37.950;-122.338;2022-09-09T07:56:31;100161.31;;;16.44;71.29
70011;BME280;59543;37.950;-122.338;2022-09-09T07:58:58;100153.16;;;16.37;71.89
70011;BME280;59543;37.950;-122.338;2022-09-09T08:01:27;100152.19;;;16.52;71.27
70011;BME280;59543;37.950;-122.338;2022-09-09T08:04:02;100148.56;;;16.38;71.98
70011;BME280;59543;37.950;-122.338;2022-09-09T08:06:32;100148.31;;;16.33;72.09
70011;BME280;59543;37.950;-122.338;2022-09-09T08:08:59;100152.47;;;16.29;72.26
70011;BME280;59543;37.950;-122.338;2022-09-09T08:11:27;100147.06;;;16.29;72.36
70011;BME280;59543;37.950;-122.338;2022-09-09T08:13:54;100154.94;;;16.23;72.98
70011;BME280;59543;37.950;-122.338;2022-09-09T08:16:23;100163.72;;;16.19;72.83
70011;BME280;59543;37.950;-122.338;2022-09-09T08:18:51;100152.19;;;16.10;73.26
70011;BME280;59543;37.950;-122.338;2022-09-09T08:21:23;100155.25;;;16.00;74.03
70011;BME280;59543;37.950;-122.338;2022-09-09T08:23:51;100160.50;;;16.09;73.67
70011;BME280;59543;37.950;-122.338;2022-09-09T08:26:32;100155.88;;;16.03;73.77
70011;BME280;59543;37.950;-122.338;2022-09-09T08:29:01;100159.88;;;16.07;73.36
70011;BME280;59543;37.950;-122.338;2022-09-09T08:31:44;100152.03;;;15.90;73.96
70011;BME280;59543;37.950;-122.338;2022-09-09T08:34:11;100158.47;;;15.83;73.70
70011;BME280;59543;37.950;-122.338;2022-09-09T08:36:45;100152.13;;;15.75;73.61
70011;BME280;59543;37.950;-122.338;2022-09-09T08:39:14;100150.72;;;15.80;73.66
70011;BME280;59543;37.950;-122.338;2022-09-09T08:53:10;100123.66;;;15.86;73.64
70011;BME280;59543;37.950;-122.338;2022-09-09T08:55:58;100124.25;;;15.88;73.35
70011;BME280;59543;37.950;-122.338;2022-09-09T08:58:30;100132.56;;;15.80;73.57
70011;BME280;59543;37.950;-122.338;2022-09-09T09:12:44;100121.69;;;15.73;71.90
70011;BME280;59543;37.950;-122.338;2022-09-09T09:15:29;100119.91;;;15.66;72.62
70011;BME280;59543;37.950;-122.338;2022-09-09T09:17:56;100119.81;;;15.74;72.82
70011;BME280;59543;37.950;-122.338;2022-09-09T09:20:50;100126.31;;;15.58;73.68
70011;BME280;59543;37.950;-122.338;2022-09-09T09:23:23;100118.25;;;15.65;73.44
70011;BME280;59543;37.950;-122.338;2022-09-09T09:25:54;100122.97;;;15.77;73.28
70011;BME280;59543;37.950;-122.338;2022-09-09T09:28:25;100118.41;;;15.85;72.94
70011;BME280;59543;37.950;-122.338;2022-09-09T09:33:27;100116.25;;;15.73;73.74
70011;BME280;59543;37.950;-122.338;2022-09-09T09:35:55;100116.22;;;15.45;75.08
70011;BME280;59543;37.950;-122.338;2022-09-09T09:38:24;100122.34;;;15.54;74.13
70011;BME280;59543;37.950;-122.338;2022-09-09T09:40:58;100115.56;;;15.43;74.92
70011;BME280;59543;37.950;-122.338;2022-09-09T09:43:27;100118.19;;;15.58;74.12
70011;BME280;59543;37.950;-122.338;2022-09-09T09:45:54;100119.47;;;15.62;74.43
70011;BME280;59543;37.950;-122.338;2022-09-09T09:48:21;100111.09;;;15.57;74.79
70011;BME280;59543;37.950;-122.338;2022-09-09T09:58:19;100108.38;;;15.57;73.32
70011;BME280;59543;37.950;-122.338;2022-09-09T10:00:50;100099.94;;;15.45;73.84
70011;BME280;59543;37.950;-122.338;2022-09-09T10:05:52;100092.13;;;15.57;73.60
70011;BME280;59543;37.950;-122.338;2022-09-09T10:08:19;100093.31;;;15.48;73.90
70011;BME280;59543;37.950;-122.338;2022-09-09T10:19:01;100096.22;;;15.25;74.44
70011;BME280;59543;37.950;-122.338;2022-09-09T10:21:46;100090.38;;;15.21;74.75
70011;BME280;59543;37.950;-122.338;2022-09-09T10:43:20;100090.50;;;15.35;74.34
70011;BME280;59543;37.950;-122.338;2022-09-09T10:46:42;100083.91;;;15.44;73.84
70011;BME280;59543;37.950;-122.338;2022-09-09T10:49:23;100087.28;;;15.24;74.75
70011;BME280;59543;37.950;-122.338;2022-09-09T10:52:28;100079.59;;;15.28;74.71
70011;BME280;59543;37.950;-122.338;2022-09-09T10:55:13;100078.22;;;15.39;74.30
70011;BME280;59543;37.950;-122.338;2022-09-09T10:57:47;100082.19;;;15.43;74.46
70011;BME280;59543;37.950;-122.338;2022-09-09T11:03:02;100071.41;;;15.21;74.67
70011;BME280;59543;37.950;-122.338;2022-09-09T11:05:39;100054.88;;;15.16;74.23
70011;BME280;59543;37.950;-122.338;2022-09-09T11:11:02;100049.69;;;15.15;73.89
70011;BME280;59543;37.950;-122.338;2022-09-09T11:13:49;100052.34;;;15.08;73.77
70011;BME280;59543;37.950;-122.338;2022-09-09T11:16:52;100043.97;;;15.03;73.70
70011;BME280;59543;37.950;-122.338;2022-09-09T11:19:42;100052.41;;;15.15;73.78
70011;BME280;59543;37.950;-122.338;2022-09-09T11:25:14;100047.16;;;15.13;73.80
70011;BME280;59543;37.950;-122.338;2022-09-09T11:28:00;100049.28;;;15.18;73.62
70011;BME280;59543;37.950;-122.338;2022-09-09T11:36:20;100029.50;;;15.17;73.50
70011;BME280;59543;37.950;-122.338;2022-09-09T11:38:52;100023.28;;;15.23;73.35
70011;BME280;59543;37.950;-122.338;2022-09-09T11:41:21;100019.97;;;15.28;73.09
70011;BME280;59543;37.950;-122.338;2022-09-09T11:43:50;100015.03;;;15.31;73.27
70011;BME280;59543;37.950;-122.338;2022-09-09T11:46:22;100015.06;;;15.38;72.94
70011;BME280;59543;37.950;-122.338;2022-09-09T11:49:01;100010.53;;;15.17;74.00
70011;BME280;59543;37.950;-122.338;2022-09-09T11:51:30;100015.41;;;15.28;73.60
70011;BME280;59543;37.950;-122.338;2022-09-09T11:59:04;100011.41;;;15.24;73.71
70011;BME280;59543;37.950;-122.338;2022-09-09T12:01:36;100015.03;;;15.31;73.27
70011;BME280;59543;37.950;-122.338;2022-09-09T12:04:09;100005.19;;;15.30;73.83
70011;BME280;59543;37.950;-122.338;2022-09-09T12:09:48;100007.91;;;15.30;73.76
70011;BME280;59543;37.950;-122.338;2022-09-09T12:12:34;100008.75;;;15.31;73.73
70011;BME280;59543;37.950;-122.338;2022-09-09T12:15:17;100013.19;;;15.11;74.32
70011;BME280;59543;37.950;-122.338;2022-09-09T12:17:57;100013.63;;;15.14;74.48
70011;BME280;59543;37.950;-122.338;2022-09-09T12:20:34;100019.56;;;15.31;74.25
70011;BME280;59543;37.950;-122.338;2022-09-09T12:24:15;100019.78;;;15.29;74.28
70011;BME280;59543;37.950;-122.338;2022-09-09T12:26:28;100019.88;;;15.15;75.42
70011;BME280;59543;37.950;-122.338;2022-09-09T12:36:41;100011.31;;;15.11;75.18
70011;BME280;59543;37.950;-122.338;2022-09-09T12:39:37;100019.63;;;15.09;74.96
70011;BME280;59543;37.950;-122.338;2022-09-09T12:42:02;100011.75;;;15.15;74.43
70011;BME280;59543;37.950;-122.338;2022-09-09T12:44:29;100010.09;;;15.14;74.58
70011;BME280;59543;37.950;-122.338;2022-09-09T12:47:01;99994.06;;;15.19;74.44
70011;BME280;59543;37.950;-122.338;2022-09-09T12:52:31;99996.72;;;15.12;74.89
70011;BME280;59543;37.950;-122.338;2022-09-09T12:55:02;99994.63;;;15.07;74.94
70011;BME280;59543;37.950;-122.338;2022-09-09T12:57:37;99994.41;;;15.09;74.98
70011;BME280;59543;37.950;-122.338;2022-09-09T13:02:47;99999.88;;;15.16;74.39
70011;BME280;59543;37.950;-122.338;2022-09-09T13:05:37;99996.88;;;15.04;74.65
70011;BME280;59543;37.950;-122.338;2022-09-09T13:08:06;99999.66;;;15.11;74.45
70011;BME280;59543;37.950;-122.338;2022-09-09T13:10:46;99996.63;;;15.27;73.18
70011;BME280;59543;37.950;-122.338;2022-09-09T13:13:17;100002.41;;;15.17;73.77
70011;BME280;59543;37.950;-122.338;2022-09-09T13:15:56;100003.59;;;15.08;74.20
70011;BME280;59543;37.950;-122.338;2022-09-09T13:18:27;100008.69;;;14.96;74.67
70011;BME280;59543;37.950;-122.338;2022-09-09T13:20:54;100007.38;;;15.14;74.85
70011;BME280;59543;37.950;-122.338;2022-09-09T13:23:28;100006.47;;;15.06;75.02
70011;BME280;59543;37.950;-122.338;2022-09-09T13:25:57;100007.97;;;15.09;74.83
70011;BME280;59543;37.950;-122.338;2022-09-09T13:28:29;100009.75;;;14.95;75.81
70011;BME280;59543;37.950;-122.338;2022-09-09T13:31:06;100013.06;;;14.97;75.43
70011;BME280;59543;37.950;-122.338;2022-09-09T13:33:45;100009.66;;;14.89;75.88
70011;BME280;59543;37.950;-122.338;2022-09-09T13:36:12;100009.66;;;14.89;75.65
70011;BME280;59543;37.950;-122.338;2022-09-09T13:38:53;100006.78;;;14.90;75.78
70011;BME280;59543;37.950;-122.338;2022-09-09T13:41:24;100000.53;;;14.90;75.80
70011;BME280;59543;37.950;-122.338;2022-09-09T13:43:52;100006.91;;;14.82;76.13
70011;BME280;59543;37.950;-122.338;2022-09-09T13:46:33;100011.53;;;14.88;75.89
70011;BME280;59543;37.950;-122.338;2022-09-09T13:49:21;100010.13;;;14.92;76.13
70011;BME280;59543;37.950;-122.338;2022-09-09T13:51:51;100014.94;;;14.97;75.78
70011;BME280;59543;37.950;-122.338;2022-09-09T13:54:20;100015.03;;;15.10;75.42
70011;BME280;59543;37.950;-122.338;2022-09-09T13:56:47;100013.06;;;14.97;76.17
70011;BME280;59543;37.950;-122.338;2022-09-09T13:59:18;100013.78;;;15.06;75.92
70011;BME280;59543;37.950;-122.338;2022-09-09T14:01:45;100019.00;;;15.07;76.06
70011;BME280;59543;37.950;-122.338;2022-09-09T14:04:12;100011.41;;;14.96;76.60
70011;BME280;59543;37.950;-122.338;2022-09-09T14:06:39;100011.34;;;14.90;76.52
70011;BME280;59543;37.950;-122.338;2022-09-09T14:09:12;100007.88;;;14.96;76.44
70011;BME280;59543;37.950;-122.338;2022-09-09T14:11:39;100005.47;;;15.07;75.93
70011;BME280;59543;37.950;-122.338;2022-09-09T14:14:06;100007.97;;;15.09;75.96
70011;BME280;59543;37.950;-122.338;2022-09-09T14:16:32;100007.03;;;14.95;76.59
70011;BME280;59543;37.950;-122.338;2022-09-09T14:18:59;100000.91;;;14.86;76.65
70011;BME280;59543;37.950;-122.338;2022-09-09T14:21:27;100006.78;;;14.90;76.65
70011;BME280;59543;37.950;-122.338;2022-09-09T14:23:53;100012.25;;;14.97;76.93
70011;BME280;59543;37.950;-122.338;2022-09-09T14:26:21;100019.06;;;15.14;76.55
70011;BME280;59543;37.950;-122.338;2022-09-09T14:28:49;100016.22;;;15.22;76.77
70011;BME280;59543;37.950;-122.338;2022-09-09T14:31:16;100019.44;;;15.11;77.34
70011;BME280;59543;37.950;-122.338;2022-09-09T14:33:45;100020.28;;;15.12;77.46
70011;BME280;59543;37.950;-122.338;2022-09-09T14:36:11;100019.84;;;15.08;77.62
70011;BME280;59543;37.950;-122.338;2022-09-09T14:38:38;100033.22;;;15.16;77.64
70011;BME280;59543;37.950;-122.338;2022-09-09T14:41:16;100032.47;;;15.22;77.51
70011;BME280;59543;37.950;-122.338;2022-09-09T14:43:43;100033.22;;;15.16;78.11
70011;BME280;59543;37.950;-122.338;2022-09-09T14:46:12;100034.56;;;15.27;77.85
70011;BME280;59543;37.950;-122.338;2022-09-09T14:48:39;100029.78;;;15.29;78.02
70011;BME280;59543;37.950;-122.338;2022-09-09T14:53:36;100036.75;;;15.38;77.72
70011;BME280;59543;37.950;-122.338;2022-09-09T14:56:08;100033.66;;;15.48;77.64
70011;BME280;59543;37.950;-122.338;2022-09-09T14:58:34;100034.06;;;15.45;77.64
70011;BME280;59543;37.950;-122.338;2022-09-09T15:01:08;100032.34;;;15.37;77.83
70011;BME280;59543;37.950;-122.338;2022-09-09T15:03:42;100025.47;;;15.35;78.23
70011;BME280;59543;37.950;-122.338;2022-09-09T15:06:11;100031.94;;;15.40;77.78
70011;BME280;59543;37.950;-122.338;2022-09-09T15:08:40;100044.50;;;15.48;77.19
70011;BME280;59543;37.950;-122.338;2022-09-09T15:11:07;100043.88;;;15.46;77.04
70011;BME280;59543;37.950;-122.338;2022-09-09T15:13:34;100034.00;;;15.66;75.82